sensor_id;sensor_type;location;lat;lon;timestamp;pressure;altitude;pressure_sealevel;temperature;humidity
57616;BME280;43816;52.054;-9.494;2023-08-30T00:00:05;100907.06;;;25.96;35.23
57616;BME280;43816;52.054;-9.494;2023-08-30T00:00:15;100925.28;;;26.04;35.04
57616;BME280;43816;52.054;-9.494;2023-08-30T00:00:26;100910.00;;;25.95;35.13
57616;BME280;43816;52.054;-9.494;2023-08-30T00:00:36;100915.09;;;25.98;35.20
57616;BME280;43816;52.054;-9.494;2023-08-30T00:00:46;100917.44;;;26.01;35.17
57616;BME280;43816;52.054;-9.494;2023-08-30T00:00:57;100914.69;;;26.01;35.16
57616;BME280;43816;52.054;-9.494;2023-08-30T00:01:07;100910.88;;;25.95;35.46
57616;BME280;43816;52.054;-9.494;2023-08-30T00:01:17;100908.31;;;25.94;35.02
57616;BME280;43816;52.054;-9.494;2023-08-30T00:01:27;100931.63;;;26.04;35.46
57616;BME280;43816;52.054;-9.494;2023-08-30T00:01:38;100914.69;;;26.01;35.46
57616;BME280;43816;52.054;-9.494;2023-08-30T00:01:48;100917.22;;;25.96;35.44
57616;BME280;43816;52.054;-9.494;2023-08-30T00:01:58;100907.25;;;25.95;35.26
57616;BME280;43816;52.054;-9.494;2023-08-30T00:02:09;100912.78;;;25.95;35.63
57616;BME280;43816;52.054;-9.494;2023-08-30T00:02:19;100915.75;;;26.00;35.35
57616;BME280;43816;52.054;-9.494;2023-08-30T00:02:29;100910.22;;;25.93;35.53
57616;BME280;43816;52.054;-9.494;2023-08-30T00:02:39;100918.50;;;26.00;35.29
57616;BME280;43816;52.054;-9.494;2023-08-30T00:02:50;100917.66;;;25.99;35.44
57616;BME280;43816;52.054;-9.494;2023-08-30T00:03:00;100925.69;;;26.01;35.05
57616;BME280;43816;52.054;-9.494;2023-08-30T00:03:11;100912.78;;;25.95;35.52
57616;BME280;43816;52.054;-9.494;2023-08-30T00:03:21;100917.84;;;25.98;35.41
57616;BME280;43816;52.054;-9.494;2023-08-30T00:03:31;100912.97;;;25.93;35.35
57616;BME280;43816;52.054;-9.494;2023-08-30T00:03:42;100904.72;;;25.93;35.41
57616;BME280;43816;52.054;-9.494;2023-08-30T00:03:52;100917.22;;;25.96;35.31
57616;BME280;43816;52.054;-9.494;2023-08-30T00:04:02;100911.72;;;25.96;35.04
57616;BME280;43816;52.054;-9.494;2023-08-30T00:04:13;100923.81;;;26.01;35.24
57616;BME280;43816;52.054;-9.494;2023-08-30T00:04:23;100902.38;;;25.90;35.52
57616;BME280;43816;52.054;-9.494;2023-08-30T00:04:34;100917.63;;;25.93;35.06
57616;BME280;43816;52.054;-9.494;2023-08-30T00:04:44;100903.22;;;25.91;35.34
57616;BME280;43816;52.054;-9.494;2023-08-30T00:04:58;100905.34;;;25.89;35.37
57616;BME280;43816;52.054;-9.494;2023-08-30T00:05:09;100888.84;;;25.82;35.20
57616;BME280;43816;52.054;-9.494;2023-08-30T00:05:19;100901.56;;;25.90;35.45
57616;BME280;43816;52.054;-9.494;2023-08-30T00:05:30;100914.25;;;25.97;35.38
57616;BME280;43816;52.054;-9.494;2023-08-30T00:05:41;100921.28;;;26.00;35.27
57616;BME280;43816;52.054;-9.494;2023-08-30T00:05:51;100896.47;;;25.87;35.33
57616;BME280;43816;52.054;-9.494;2023-08-30T00:06:05;100914.25;;;25.97;35.23
57616;BME280;43816;52.054;-9.494;2023-08-30T00:06:16;100899.00;;;25.88;35.36
57616;BME280;43816;52.054;-9.494;2023-08-30T00:06:26;100896.88;;;25.90;35.33
57616;BME280;43816;52.054;-9.494;2023-08-30T00:06:36;100882.69;;;25.80;35.28
57616;BME280;43816;52.054;-9.494;2023-08-30T00:06:47;100913.66;;;25.95;35.49
57616;BME280;43816;52.054;-9.494;2023-08-30T00:06:57;100888.84;;;25.82;35.18
57616;BME280;43816;52.054;-9.494;2023-08-30T00:07:07;100906.84;;;25.98;35.02
57616;BME280;43816;52.054;-9.494;2023-08-30T00:07:17;100901.09;;;25.93;35.22
57616;BME280;43816;52.054;-9.494;2023-08-30T00:07:28;100876.31;;;25.79;35.41
57616;BME280;43816;52.054;-9.494;2023-08-30T00:07:38;100911.06;;;25.94;35.13
57616;BME280;43816;52.054;-9.494;2023-08-30T00:07:48;100905.78;;;25.92;35.12
57616;BME280;43816;52.054;-9.494;2023-08-30T00:07:58;100907.25;;;25.95;35.37
57616;BME280;43816;52.054;-9.494;2023-08-30T00:08:09;100904.94;;;25.92;35.30
57616;BME280;43816;52.054;-9.494;2023-08-30T00:08:19;100906.59;;;25.93;35.51
57616;BME280;43816;52.054;-9.494;2023-08-30T00:08:30;100910.66;;;25.97;35.52
57616;BME280;43816;52.054;-9.494;2023-08-30T00:08:41;100896.47;;;25.87;35.07
57616;BME280;43816;52.054;-9.494;2023-08-30T00:08:51;100913.44;;;25.97;35.51
57616;BME280;43816;52.054;-9.494;2023-08-30T00:09:01;100917.03;;;25.97;35.13
57616;BME280;43816;52.054;-9.494;2023-08-30T00:09:12;100906.22;;;25.96;35.53
57616;BME280;43816;52.054;-9.494;2023-08-30T00:09:22;100899.00;;;25.88;34.97
57616;BME280;43816;52.054;-9.494;2023-08-30T00:09:32;100895.16;;;25.89;35.17
57616;BME280;43816;52.054;-9.494;2023-08-30T00:09:43;100902.38;;;25.90;35.22
57616;BME280;43816;52.054;-9.494;2023-08-30T00:09:53;100899.00;;;25.88;35.48
57616;BME280;43816;52.054;-9.494;2023-08-30T00:10:03;100871.91;;;25.72;35.42
57616;BME280;43816;52.054;-9.494;2023-08-30T00:10:14;100878.66;;;25.76;35.46
57616;BME280;43816;52.054;-9.494;2023-08-30T00:10:24;100917.22;;;25.96;35.52
57616;BME280;43816;52.054;-9.494;2023-08-30T00:10:35;100905.56;;;25.94;35.61
57616;BME280;43816;52.054;-9.494;2023-08-30T00:10:45;100913.19;;;25.92;35.38
57616;BME280;43816;52.054;-9.494;2023-08-30T00:10:56;100907.06;;;25.90;35.41
57616;BME280;43816;52.054;-9.494;2023-08-30T00:11:06;100912.13;;;25.93;35.27
57616;BME280;43816;52.054;-9.494;2023-08-30T00:11:16;100900.28;;;25.85;35.21
57616;BME280;43816;52.054;-9.494;2023-08-30T00:11:27;100912.97;;;25.93;35.30
57616;BME280;43816;52.054;-9.494;2023-08-30T00:11:37;100911.50;;;25.91;35.22
57616;BME280;43816;52.054;-9.494;2023-08-30T00:11:47;100916.41;;;25.95;35.49
57616;BME280;43816;52.054;-9.494;2023-08-30T00:11:57;100899.84;;;25.89;35.18
57616;BME280;43816;52.054;-9.494;2023-08-30T00:12:08;100902.59;;;25.89;35.18
57616;BME280;43816;52.054;-9.494;2023-08-30T00:12:18;100915.53;;;25.95;34.89
57616;BME280;43816;52.054;-9.494;2023-08-30T00:12:29;100913.81;;;25.94;35.49
57616;BME280;43816;52.054;-9.494;2023-08-30T00:12:39;100889.06;;;25.80;35.43
57616;BME280;43816;52.054;-9.494;2023-08-30T00:12:49;100915.75;;;25.93;34.99
57616;BME280;43816;52.054;-9.494;2023-08-30T00:13:00;100903.00;;;25.92;35.27
57616;BME280;43816;52.054;-9.494;2023-08-30T00:13:11;100904.53;;;25.88;35.37
57616;BME280;43816;52.054;-9.494;2023-08-30T00:13:22;100897.72;;;25.84;35.21
57616;BME280;43816;52.054;-9.494;2023-08-30T00:13:32;100905.34;;;25.89;35.18
57616;BME280;43816;52.054;-9.494;2023-08-30T00:13:43;100896.03;;;25.83;35.39
57616;BME280;43816;52.054;-9.494;2023-08-30T00:13:53;100913.81;;;25.94;35.35
57616;BME280;43816;52.054;-9.494;2023-08-30T00:14:05;100913.81;;;25.94;35.12
57616;BME280;43816;52.054;-9.494;2023-08-30T00:14:16;100907.06;;;25.90;35.58
57616;BME280;43816;52.054;-9.494;2023-08-30T00:14:26;100896.88;;;25.83;35.20
57616;BME280;43816;52.054;-9.494;2023-08-30T00:14:37;100891.38;;;25.83;35.03
57616;BME280;43816;52.054;-9.494;2023-08-30T00:14:47;100909.38;;;25.93;35.22
57616;BME280;43816;52.054;-9.494;2023-08-30T00:14:57;100899.44;;;25.85;35.40
57616;BME280;43816;52.054;-9.494;2023-08-30T00:15:08;100893.94;;;25.85;35.33
57616;BME280;43816;52.054;-9.494;2023-08-30T00:15:18;100898.13;;;25.88;35.30
57616;BME280;43816;52.054;-9.494;2023-08-30T00:15:28;100910.22;;;25.93;35.24
57616;BME280;43816;52.054;-9.494;2023-08-30T00:15:39;100896.03;;;25.83;35.14
57616;BME280;43816;52.054;-9.494;2023-08-30T00:15:49;100908.53;;;25.92;35.47
57616;BME280;43816;52.054;-9.494;2023-08-30T00:16:00;100900.91;;;25.88;35.41
57616;BME280;43816;52.054;-9.494;2023-08-30T00:16:10;100900.91;;;25.88;35.35
57616;BME280;43816;52.054;-9.494;2023-08-30T00:16:21;100897.50;;;25.85;35.28
57616;BME280;43816;52.054;-9.494;2023-08-30T00:16:34;100894.53;;;25.87;35.24
57616;BME280;43816;52.054;-9.494;2023-08-30T00:16:51;100871.91;;;25.72;35.46
57616;BME280;43816;52.054;-9.494;2023-08-30T00:17:01;100898.56;;;25.84;35.16
57616;BME280;43816;52.054;-9.494;2023-08-30T00:17:12;100904.94;;;25.92;35.29
57616;BME280;43816;52.054;-9.494;2023-08-30T00:17:22;100898.78;;;25.90;35.36
57616;BME280;43816;52.054;-9.494;2023-08-30T00:17:32;100895.81;;;25.84;35.16
57616;BME280;43816;52.054;-9.494;2023-08-30T00:17:43;100901.56;;;25.90;35.46
57616;BME280;43816;52.054;-9.494;2023-08-30T00:17:53;100899.84;;;25.89;35.47
57616;BME280;43816;52.054;-9.494;2023-08-30T00:18:04;100888.00;;;25.81;35.19
57616;BME280;43816;52.054;-9.494;2023-08-30T00:18:14;100900.91;;;25.88;35.56
57616;BME280;43816;52.054;-9.494;2023-08-30T00:18:24;100889.06;;;25.80;35.44
57616;BME280;43816;52.054;-9.494;2023-08-30T00:18:34;100895.19;;;25.82;35.21
57616;BME280;43816;52.054;-9.494;2023-08-30T00:18:45;100897.50;;;25.85;35.48
57616;BME280;43816;52.054;-9.494;2023-08-30T00:18:55;100891.38;;;25.83;35.34
57616;BME280;43816;52.054;-9.494;2023-08-30T00:19:06;100896.88;;;25.83;35.54
57616;BME280;43816;52.054;-9.494;2023-08-30T00:19:16;100897.50;;;25.85;35.49
57616;BME280;43816;52.054;-9.494;2023-08-30T00:19:26;100910.88;;;25.89;35.11
57616;BME280;43816;52.054;-9.494;2023-08-30T00:19:36;100898.56;;;25.84;35.26
57616;BME280;43816;52.054;-9.494;2023-08-30T00:19:47;100897.72;;;25.84;35.21
57616;BME280;43816;52.054;-9.494;2023-08-30T00:19:58;100907.06;;;25.90;35.14
57616;BME280;43816;52.054;-9.494;2023-08-30T00:20:09;100894.97;;;25.84;35.58
57616;BME280;43816;52.054;-9.494;2023-08-30T00:20:20;100897.72;;;25.84;35.17
57616;BME280;43816;52.054;-9.494;2023-08-30T00:20:30;100903.44;;;25.89;35.49
57616;BME280;43816;52.054;-9.494;2023-08-30T00:20:40;100894.56;;;25.80;35.15
57616;BME280;43816;52.054;-9.494;2023-08-30T00:20:51;100877.84;;;25.75;35.25
57616;BME280;43816;52.054;-9.494;2023-08-30T00:21:01;100886.28;;;25.80;35.37
57616;BME280;43816;52.054;-9.494;2023-08-30T00:21:11;100898.34;;;25.86;35.09
57616;BME280;43816;52.054;-9.494;2023-08-30T00:21:21;100896.88;;;25.83;35.29
57616;BME280;43816;52.054;-9.494;2023-08-30T00:21:32;100876.56;;;25.71;35.43
57616;BME280;43816;52.054;-9.494;2023-08-30T00:21:42;100879.97;;;25.73;35.31
57616;BME280;43816;52.054;-9.494;2023-08-30T00:21:52;100872.75;;;25.72;35.26
57616;BME280;43816;52.054;-9.494;2023-08-30T00:22:03;100897.31;;;25.87;35.37
57616;BME280;43816;52.054;-9.494;2023-08-30T00:22:13;100892.84;;;25.79;35.29
57616;BME280;43816;52.054;-9.494;2023-08-30T00:22:23;100901.31;;;25.84;35.41
57616;BME280;43816;52.054;-9.494;2023-08-30T00:22:34;100902.81;;;25.87;35.17
57616;BME280;43816;52.054;-9.494;2023-08-30T00:22:44;100897.31;;;25.87;35.41
57616;BME280;43816;52.054;-9.494;2023-08-30T00:22:55;100896.88;;;25.83;35.11
57616;BME280;43816;52.054;-9.494;2023-08-30T00:23:05;100901.09;;;25.86;35.47
57616;BME280;43816;52.054;-9.494;2023-08-30T00:23:15;100878.25;;;25.72;35.18
57616;BME280;43816;52.054;-9.494;2023-08-30T00:23:25;100886.28;;;25.80;35.05
57616;BME280;43816;52.054;-9.494;2023-08-30T00:23:36;100892.22;;;25.84;35.50
57616;BME280;43816;52.054;-9.494;2023-08-30T00:23:46;100882.25;;;25.76;35.13
57616;BME280;43816;52.054;-9.494;2023-08-30T00:23:56;100892.66;;;25.81;35.38
57616;BME280;43816;52.054;-9.494;2023-08-30T00:24:06;100894.13;;;25.83;35.28
57616;BME280;43816;52.054;-9.494;2023-08-30T00:24:17;100903.88;;;25.86;35.60
57616;BME280;43816;52.054;-9.494;2023-08-30T00:24:27;100882.25;;;25.76;35.55
57616;BME280;43816;52.054;-9.494;2023-08-30T00:24:37;100900.28;;;25.85;35.23
57616;BME280;43816;52.054;-9.494;2023-08-30T00:24:48;100895.81;;;25.84;35.31
57616;BME280;43816;52.054;-9.494;2023-08-30T00:24:58;100888.22;;;25.80;35.24
57616;BME280;43816;52.054;-9.494;2023-08-30T00:25:08;100874.88;;;25.70;35.25
57616;BME280;43816;52.054;-9.494;2023-08-30T00:25:19;100903.03;;;25.85;35.24
57616;BME280;43816;52.054;-9.494;2023-08-30T00:25:29;100893.06;;;25.84;35.47
57616;BME280;43816;52.054;-9.494;2023-08-30T00:25:39;100887.13;;;25.81;35.28
57616;BME280;43816;52.054;-9.494;2023-08-30T00:25:49;100886.09;;;25.75;35.25
57616;BME280;43816;52.054;-9.494;2023-08-30T00:26:00;100896.03;;;25.83;35.22
57616;BME280;43816;52.054;-9.494;2023-08-30T00:26:10;100884.41;;;25.74;35.30
57616;BME280;43816;52.054;-9.494;2023-08-30T00:26:20;100884.81;;;25.78;35.46
57616;BME280;43816;52.054;-9.494;2023-08-30T00:26:30;100896.28;;;25.81;35.27
57616;BME280;43816;52.054;-9.494;2023-08-30T00:26:41;100886.09;;;25.75;35.69
57616;BME280;43816;52.054;-9.494;2023-08-30T00:26:51;100893.94;;;25.78;35.14
57616;BME280;43816;52.054;-9.494;2023-08-30T00:27:02;100887.56;;;25.78;35.39
57616;BME280;43816;52.054;-9.494;2023-08-30T00:27:12;100896.03;;;25.83;35.35
57616;BME280;43816;52.054;-9.494;2023-08-30T00:27:22;100876.13;;;25.67;35.50
57616;BME280;43816;52.054;-9.494;2023-08-30T00:27:33;100889.06;;;25.80;35.21
57616;BME280;43816;52.054;-9.494;2023-08-30T00:27:43;100874.88;;;25.70;35.25
57616;BME280;43816;52.054;-9.494;2023-08-30T00:27:53;100895.19;;;25.82;35.26
57616;BME280;43816;52.054;-9.494;2023-08-30T00:28:04;100895.19;;;25.82;35.44
57616;BME280;43816;52.054;-9.494;2023-08-30T00:28:14;100884.41;;;25.74;35.26
57616;BME280;43816;52.054;-9.494;2023-08-30T00:28:24;100883.34;;;25.75;35.39
57616;BME280;43816;52.054;-9.494;2023-08-30T00:28:34;100870.22;;;25.71;35.55
57616;BME280;43816;52.054;-9.494;2023-08-30T00:28:45;100878.47;;;25.71;35.18
57616;BME280;43816;52.054;-9.494;2023-08-30T00:28:55;100869.78;;;25.67;35.41
57616;BME280;43816;52.054;-9.494;2023-08-30T00:29:05;100872.56;;;25.67;35.32
57616;BME280;43816;52.054;-9.494;2023-08-30T00:29:15;100867.47;;;25.64;35.55
57616;BME280;43816;52.054;-9.494;2023-08-30T00:29:26;100899.88;;;25.82;35.29
57616;BME280;43816;52.054;-9.494;2023-08-30T00:29:36;100882.72;;;25.73;35.24
57616;BME280;43816;52.054;-9.494;2023-08-30T00:29:46;100894.34;;;25.82;35.56
57616;BME280;43816;52.054;-9.494;2023-08-30T00:29:57;100891.19;;;25.78;35.44
57616;BME280;43816;52.054;-9.494;2023-08-30T00:30:08;100874.88;;;25.70;35.20
57616;BME280;43816;52.054;-9.494;2023-08-30T00:30:18;100888.44;;;25.78;35.38
57616;BME280;43816;52.054;-9.494;2023-08-30T00:30:29;100893.50;;;25.81;35.19
57616;BME280;43816;52.054;-9.494;2023-08-30T00:30:39;100897.31;;;25.80;35.18
57616;BME280;43816;52.054;-9.494;2023-08-30T00:30:54;100874.88;;;25.70;35.12
57616;BME280;43816;52.054;-9.494;2023-08-30T00:31:04;100898.16;;;25.81;35.33
57616;BME280;43816;52.054;-9.494;2023-08-30T00:31:14;100896.69;;;25.78;35.30
57616;BME280;43816;52.054;-9.494;2023-08-30T00:31:25;100872.97;;;25.71;35.19
57616;BME280;43816;52.054;-9.494;2023-08-30T00:31:35;100895.81;;;25.78;35.39
57616;BME280;43816;52.054;-9.494;2023-08-30T00:31:46;100893.28;;;25.76;35.22
57616;BME280;43816;52.054;-9.494;2023-08-30T00:31:56;100881.66;;;25.67;35.32
57616;BME280;43816;52.054;-9.494;2023-08-30T00:32:06;100875.31;;;25.67;35.19
57616;BME280;43816;52.054;-9.494;2023-08-30T00:32:17;100886.53;;;25.72;35.40
57616;BME280;43816;52.054;-9.494;2023-08-30T00:32:27;100890.53;;;25.76;35.43
57616;BME280;43816;52.054;-9.494;2023-08-30T00:32:38;100893.94;;;25.78;34.99
57616;BME280;43816;52.054;-9.494;2023-08-30T00:32:48;100882.53;;;25.68;35.25
57616;BME280;43816;52.054;-9.494;2023-08-30T00:32:58;100885.03;;;25.70;35.25
57616;BME280;43816;52.054;-9.494;2023-08-30T00:33:08;100854.56;;;25.51;35.51
57616;BME280;43816;52.054;-9.494;2023-08-30T00:33:19;100895.81;;;25.78;35.32
57616;BME280;43816;52.054;-9.494;2023-08-30T00:33:29;100872.97;;;25.64;35.41
57616;BME280;43816;52.054;-9.494;2023-08-30T00:33:39;100904.09;;;25.78;35.43
57616;BME280;43816;52.054;-9.494;2023-08-30T00:33:52;100863.00;;;25.56;35.04
57616;BME280;43816;52.054;-9.494;2023-08-30T00:34:03;100901.34;;;25.78;35.17
57616;BME280;43816;52.054;-9.494;2023-08-30T00:34:13;100892.44;;;25.76;35.25
57616;BME280;43816;52.054;-9.494;2023-08-30T00:34:23;100891.41;;;25.70;35.53
57616;BME280;43816;52.054;-9.494;2023-08-30T00:34:34;100888.44;;;25.72;35.58
57616;BME280;43816;52.054;-9.494;2023-08-30T00:34:44;100898.16;;;25.74;35.33
57616;BME280;43816;52.054;-9.494;2023-08-30T00:34:54;100892.22;;;25.77;35.42
57616;BME280;43816;52.054;-9.494;2023-08-30T00:35:05;100886.75;;;25.71;35.49
57616;BME280;43816;52.054;-9.494;2023-08-30T00:35:15;100896.91;;;25.77;35.31
57616;BME280;43816;52.054;-9.494;2023-08-30T00:35:25;100892.66;;;25.74;35.19
57616;BME280;43816;52.054;-9.494;2023-08-30T00:35:36;100882.72;;;25.66;35.42
57616;BME280;43816;52.054;-9.494;2023-08-30T00:35:46;100883.34;;;25.69;35.39
57616;BME280;43816;52.054;-9.494;2023-08-30T00:36:00;100890.97;;;25.73;35.24
57616;BME280;43816;52.054;-9.494;2023-08-30T00:36:10;100890.97;;;25.73;35.29
57616;BME280;43816;52.054;-9.494;2023-08-30T00:36:21;100885.47;;;25.73;35.19
57616;BME280;43816;52.054;-9.494;2023-08-30T00:36:31;100874.03;;;25.63;35.27
57616;BME280;43816;52.054;-9.494;2023-08-30T00:36:41;100886.31;;;25.74;35.42
57616;BME280;43816;52.054;-9.494;2023-08-30T00:36:52;100885.47;;;25.73;35.22
57616;BME280;43816;52.054;-9.494;2023-08-30T00:37:02;100891.59;;;25.75;35.67
57616;BME280;43816;52.054;-9.494;2023-08-30T00:37:12;100881.84;;;25.73;35.46
57616;BME280;43816;52.054;-9.494;2023-08-30T00:37:23;100879.75;;;25.68;35.22
57616;BME280;43816;52.054;-9.494;2023-08-30T00:37:33;100883.78;;;25.72;35.24
57616;BME280;43816;52.054;-9.494;2023-08-30T00:37:44;100862.19;;;25.56;35.21
57616;BME280;43816;52.054;-9.494;2023-08-30T00:37:54;100887.16;;;25.74;35.21
57616;BME280;43816;52.054;-9.494;2023-08-30T00:38:04;100864.31;;;25.54;35.60
57616;BME280;43816;52.054;-9.494;2023-08-30T00:38:14;100885.69;;;25.72;35.33
57616;BME280;43816;52.054;-9.494;2023-08-30T00:38:26;100890.53;;;25.70;35.32
57616;BME280;43816;52.054;-9.494;2023-08-30T00:38:37;100872.34;;;25.62;35.32
57616;BME280;43816;52.054;-9.494;2023-08-30T00:38:47;100885.28;;;25.68;35.42
57616;BME280;43816;52.054;-9.494;2023-08-30T00:38:58;100868.09;;;25.59;35.44
57616;BME280;43816;52.054;-9.494;2023-08-30T00:39:08;100878.28;;;25.65;35.39
57616;BME280;43816;52.054;-9.494;2023-08-30T00:39:18;100878.28;;;25.65;35.08
57616;BME280;43816;52.054;-9.494;2023-08-30T00:39:28;100881.22;;;25.71;35.24
57616;BME280;43816;52.054;-9.494;2023-08-30T00:39:39;100883.78;;;25.72;35.34
57616;BME280;43816;52.054;-9.494;2023-08-30T00:39:49;100871.72;;;25.60;35.29
57616;BME280;43816;52.054;-9.494;2023-08-30T00:39:59;100884.41;;;25.67;35.37
57616;BME280;43816;52.054;-9.494;2023-08-30T00:40:10;100888.44;;;25.72;35.23
57616;BME280;43816;52.054;-9.494;2023-08-30T00:40:24;100880.19;;;25.65;35.43
57616;BME280;43816;52.054;-9.494;2023-08-30T00:40:40;100874.88;;;25.63;35.44
57616;BME280;43816;52.054;-9.494;2023-08-30T00:40:50;100887.56;;;25.71;35.25
57616;BME280;43816;52.054;-9.494;2023-08-30T00:41:01;100887.56;;;25.71;35.09
57616;BME280;43816;52.054;-9.494;2023-08-30T00:41:11;100879.97;;;25.66;35.23
57616;BME280;43816;52.054;-9.494;2023-08-30T00:41:21;100853.50;;;25.52;35.55
57616;BME280;43816;52.054;-9.494;2023-08-30T00:41:31;100879.75;;;25.68;35.36
57616;BME280;43816;52.054;-9.494;2023-08-30T00:41:42;100885.91;;;25.70;35.23
57616;BME280;43816;52.054;-9.494;2023-08-30T00:41:52;100886.75;;;25.71;35.20
57616;BME280;43816;52.054;-9.494;2023-08-30T00:42:04;100879.31;;;25.64;35.41
57616;BME280;43816;52.054;-9.494;2023-08-30T00:42:15;100876.38;;;25.59;35.38
57616;BME280;43816;52.054;-9.494;2023-08-30T00:42:25;100877.03;;;25.61;35.15
57616;BME280;43816;52.054;-9.494;2023-08-30T00:42:36;100871.06;;;25.58;35.08
57616;BME280;43816;52.054;-9.494;2023-08-30T00:42:46;100894.16;;;25.70;35.24
57616;BME280;43816;52.054;-9.494;2023-08-30T00:42:57;100880.63;;;25.62;35.22
57616;BME280;43816;52.054;-9.494;2023-08-30T00:43:07;100884.63;;;25.66;35.22
57616;BME280;43816;52.054;-9.494;2023-08-30T00:43:18;100882.28;;;25.70;35.46
57616;BME280;43816;52.054;-9.494;2023-08-30T00:43:29;100873.19;;;25.62;35.20
57616;BME280;43816;52.054;-9.494;2023-08-30T00:43:39;100887.78;;;25.70;35.35
57616;BME280;43816;52.054;-9.494;2023-08-30T00:43:49;100882.94;;;25.65;35.27
57616;BME280;43816;52.054;-9.494;2023-08-30T00:43:59;100887.38;;;25.66;35.23
57616;BME280;43816;52.054;-9.494;2023-08-30T00:44:10;100876.78;;;25.63;35.23
57616;BME280;43816;52.054;-9.494;2023-08-30T00:44:20;100881.88;;;25.66;35.19
57616;BME280;43816;52.054;-9.494;2023-08-30T00:44:30;100877.44;;;25.58;35.11
57616;BME280;43816;52.054;-9.494;2023-08-30T00:44:41;100888.47;;;25.65;35.34
57616;BME280;43816;52.054;-9.494;2023-08-30T00:44:51;100874.28;;;25.55;35.39
57616;BME280;43816;52.054;-9.494;2023-08-30T00:45:01;100882.09;;;25.58;35.25
57616;BME280;43816;52.054;-9.494;2023-08-30T00:45:11;100880.81;;;25.60;35.30
57616;BME280;43816;52.054;-9.494;2023-08-30T00:45:22;100893.97;;;25.65;35.27
57616;BME280;43816;52.054;-9.494;2023-08-30T00:45:33;100880.41;;;25.63;35.12
57616;BME280;43816;52.054;-9.494;2023-08-30T00:45:44;100889.09;;;25.67;35.51
57616;BME280;43816;52.054;-9.494;2023-08-30T00:45:54;100891.84;;;25.67;35.36
57616;BME280;43816;52.054;-9.494;2023-08-30T00:46:05;100886.75;;;25.64;35.47
57616;BME280;43816;52.054;-9.494;2023-08-30T00:46:15;100882.53;;;25.61;35.29
57616;BME280;43816;52.054;-9.494;2023-08-30T00:46:27;100886.75;;;25.64;35.38
57616;BME280;43816;52.054;-9.494;2023-08-30T00:46:37;100874.91;;;25.57;35.31
57616;BME280;43816;52.054;-9.494;2023-08-30T00:46:48;100890.13;;;25.66;35.18
57616;BME280;43816;52.054;-9.494;2023-08-30T00:46:59;100877.03;;;25.61;35.20
57616;BME280;43816;52.054;-9.494;2023-08-30T00:47:09;100890.13;;;25.66;35.35
57616;BME280;43816;52.054;-9.494;2023-08-30T00:47:21;100875.75;;;25.57;35.46
57616;BME280;43816;52.054;-9.494;2023-08-30T00:47:31;100890.13;;;25.66;35.06
57616;BME280;43816;52.054;-9.494;2023-08-30T00:47:42;100890.13;;;25.66;35.14
57616;BME280;43816;52.054;-9.494;2023-08-30T00:47:52;100881.03;;;25.59;35.44
57616;BME280;43816;52.054;-9.494;2023-08-30T00:48:03;100888.47;;;25.65;35.50
57616;BME280;43816;52.054;-9.494;2023-08-30T00:48:15;100875.53;;;25.59;35.19
57616;BME280;43816;52.054;-9.494;2023-08-30T00:48:27;100885.03;;;25.63;35.30
57616;BME280;43816;52.054;-9.494;2023-08-30T00:48:37;100871.53;;;25.55;35.43
57616;BME280;43816;52.054;-9.494;2023-08-30T00:48:48;100884.22;;;25.62;35.35
57616;BME280;43816;52.054;-9.494;2023-08-30T00:48:59;100891.22;;;25.65;35.52
57616;BME280;43816;52.054;-9.494;2023-08-30T00:49:13;100882.94;;;25.65;35.34
57616;BME280;43816;52.054;-9.494;2023-08-30T00:49:24;100886.75;;;25.64;35.22
57616;BME280;43816;52.054;-9.494;2023-08-30T00:49:34;100863.03;;;25.49;35.27
57616;BME280;43816;52.054;-9.494;2023-08-30T00:49:47;100859.22;;;25.51;35.17
57616;BME280;43816;52.054;-9.494;2023-08-30T00:49:58;100868.31;;;25.51;35.48
57616;BME280;43816;52.054;-9.494;2023-08-30T00:50:08;100887.19;;;25.61;35.20
57616;BME280;43816;52.054;-9.494;2023-08-30T00:50:19;100892.25;;;25.64;35.10
57616;BME280;43816;52.054;-9.494;2023-08-30T00:50:30;100875.31;;;25.54;34.94
57616;BME280;43816;52.054;-9.494;2023-08-30T00:50:40;100890.81;;;25.61;35.26
57616;BME280;43816;52.054;-9.494;2023-08-30T00:50:51;100891.44;;;25.63;35.42
57616;BME280;43816;52.054;-9.494;2023-08-30T00:51:02;100866.66;;;25.43;35.14
57616;BME280;43816;52.054;-9.494;2023-08-30T00:51:12;100880.19;;;25.58;35.32
57616;BME280;43816;52.054;-9.494;2023-08-30T00:51:23;100891.84;;;25.60;35.44
57616;BME280;43816;52.054;-9.494;2023-08-30T00:51:33;100896.06;;;25.63;35.13
57616;BME280;43816;52.054;-9.494;2023-08-30T00:51:44;100900.75;;;25.62;35.53
57616;BME280;43816;52.054;-9.494;2023-08-30T00:51:54;100894.81;;;25.59;35.12
57616;BME280;43816;52.054;-9.494;2023-08-30T00:52:07;100893.56;;;25.61;35.28
57616;BME280;43816;52.054;-9.494;2023-08-30T00:52:18;100876.16;;;25.54;35.18
57616;BME280;43816;52.054;-9.494;2023-08-30T00:52:29;100852.91;;;25.37;35.15
57616;BME280;43816;52.054;-9.494;2023-08-30T00:52:39;100886.75;;;25.57;35.13
57616;BME280;43816;52.054;-9.494;2023-08-30T00:52:50;100889.31;;;25.59;35.07
57616;BME280;43816;52.054;-9.494;2023-08-30T00:53:00;100894.81;;;25.59;35.31
57616;BME280;43816;52.054;-9.494;2023-08-30T00:53:11;100883.81;;;25.52;35.18
57616;BME280;43816;52.054;-9.494;2023-08-30T00:53:21;100899.91;;;25.62;35.25
57616;BME280;43816;52.054;-9.494;2023-08-30T00:53:32;100880.22;;;25.52;35.29
57616;BME280;43816;52.054;-9.494;2023-08-30T00:53:44;100884.63;;;25.53;35.49
57616;BME280;43816;52.054;-9.494;2023-08-30T00:53:55;100879.56;;;25.49;35.52
57616;BME280;43816;52.054;-9.494;2023-08-30T00:54:06;100902.03;;;25.60;35.52
57616;BME280;43816;52.054;-9.494;2023-08-30T00:54:16;100888.88;;;25.55;35.11
57616;BME280;43816;52.054;-9.494;2023-08-30T00:54:27;100895.44;;;25.61;35.07
57616;BME280;43816;52.054;-9.494;2023-08-30T00:54:38;100892.28;;;25.57;35.19